createdAt,value
2023-10-10T00:01:29.648Z,100368.58
2023-10-10T00:04:36.016Z,100370.59
2023-10-10T00:07:43.022Z,100370.42
2023-10-10T00:10:48.494Z,100372.46
2023-10-10T00:13:54.157Z,100373.17
2023-10-10T00:17:03.431Z,100374.60
2023-10-10T00:20:11.744Z,100369.12
2023-10-10T00:23:23.285Z,100360.19
2023-10-10T00:26:29.789Z,100360.56
2023-10-10T00:29:36.485Z,100359.37
2023-10-10T00:32:44.745Z,100361.28
2023-10-10T00:35:52.693Z,100357.06
2023-10-10T00:39:01.480Z,100358.97
2023-10-10T00:42:09.485Z,100354.89
2023-10-10T00:45:17.458Z,100346.55
2023-10-10T00:48:25.695Z,100355.23
2023-10-10T00:51:31.517Z,100348.21
2023-10-10T00:54:41.043Z,100345.87
2023-10-10T00:57:47.788Z,100343.24
2023-10-10T01:00:55.916Z,100342.36
2023-10-10T01:04:04.627Z,100352.61
2023-10-10T01:07:17.919Z,100354.85
2023-10-10T01:10:27.351Z,100353.38
2023-10-10T01:13:35.428Z,100354.70
2023-10-10T01:16:41.451Z,100358.31
2023-10-10T01:19:50.512Z,100358.79
2023-10-10T01:22:56.942Z,100359.60
2023-10-10T01:26:05.311Z,100360.83
2023-10-10T01:29:13.391Z,100352.66
2023-10-10T01:32:19.587Z,100349.22
2023-10-10T01:35:25.203Z,100351.27
2023-10-10T01:38:54.199Z,100352.32
2023-10-10T01:42:01.383Z,100345.96
2023-10-10T01:45:09.627Z,100344.88
2023-10-10T01:48:17.808Z,100345.52
2023-10-10T01:51:26.048Z,100347.50
2023-10-10T01:54:44.643Z,100346.58
2023-10-10T01:57:49.769Z,100345.63
2023-10-10T02:00:58.239Z,100344.30
2023-10-10T02:04:04.309Z,100345.22
2023-10-10T02:07:13.232Z,100346.06
2023-10-10T02:10:21.286Z,100341.47
2023-10-10T02:13:28.273Z,100344.06
2023-10-10T02:16:36.407Z,100347.16
2023-10-10T02:19:36.943Z,100344.88
2023-10-10T02:22:30.945Z,100339.32
2023-10-10T02:25:34.793Z,100342.08
2023-10-10T02:28:54.012Z,100346.98
2023-10-10T02:32:20.403Z,100345.14
2023-10-10T02:35:38.126Z,100350.87
2023-10-10T02:38:53.000Z,100343.82
2023-10-10T02:41:59.631Z,100337.48
2023-10-10T02:45:06.022Z,100344.61
2023-10-10T02:48:15.637Z,100346.65
2023-10-10T02:51:23.104Z,100337.76
2023-10-10T02:54:32.117Z,100338.02
2023-10-10T02:57:38.265Z,100335.00
2023-10-10T03:00:45.876Z,100330.06
2023-10-10T03:03:52.452Z,100341.88
2023-10-10T03:06:58.528Z,100339.73
2023-10-10T03:10:22.955Z,100340.92
2023-10-10T03:13:42.841Z,100345.90
2023-10-10T03:16:52.167Z,100342.19
2023-10-10T03:20:00.499Z,100344.67
2023-10-10T03:23:14.278Z,100351.17
2023-10-10T03:26:22.489Z,100353.94
2023-10-10T03:29:46.232Z,100358.05
2023-10-10T03:32:57.325Z,100358.80
2023-10-10T03:36:22.678Z,100362.64
2023-10-10T03:39:33.781Z,100361.10
2023-10-10T03:42:58.525Z,100359.08
2023-10-10T03:46:22.689Z,100356.45
2023-10-10T03:49:46.658Z,100359.14
2023-10-10T03:53:10.008Z,100358.09
2023-10-10T03:56:34.847Z,100358.38
2023-10-10T03:59:58.092Z,100361.81
2023-10-10T04:03:24.582Z,100366.73
2023-10-10T04:06:49.203Z,100369.17
2023-10-10T04:10:11.995Z,100370.39
2023-10-10T04:13:36.306Z,100373.06
2023-10-10T04:17:00.796Z,100378.77
2023-10-10T04:20:17.738Z,100378.48
2023-10-10T04:23:42.807Z,100377.02
2023-10-10T04:27:08.303Z,100376.88
2023-10-10T04:30:30.641Z,100378.39
2023-10-10T04:33:54.941Z,100388.36
2023-10-10T04:37:18.253Z,100389.70
2023-10-10T04:40:43.623Z,100388.39
2023-10-10T04:44:08.328Z,100382.30
2023-10-10T04:47:31.830Z,100391.06
2023-10-10T04:50:55.359Z,100390.92
2023-10-10T04:54:19.282Z,100397.61
2023-10-10T04:57:43.067Z,100403.29
2023-10-10T05:01:07.503Z,100401.91
2023-10-10T05:04:32.812Z,100403.02
2023-10-10T05:07:56.313Z,100413.73
2023-10-10T05:11:19.933Z,100415.32
2023-10-10T05:14:44.129Z,100417.07
2023-10-10T05:18:08.439Z,100417.41
2023-10-10T05:21:36.612Z,100417.08
2023-10-10T05:24:47.007Z,100420.19
2023-10-10T05:28:09.650Z,100425.99
2023-10-10T05:31:18.394Z,100429.72
2023-10-10T05:34:24.047Z,100428.35
2023-10-10T05:37:29.782Z,100421.77
2023-10-10T05:40:39.218Z,100422.41
2023-10-10T05:43:45.264Z,100428.84
2023-10-10T05:46:52.226Z,100429.25
2023-10-10T05:50:13.602Z,100435.56
2023-10-10T05:53:22.611Z,100435.05
2023-10-10T05:56:31.660Z,100435.17
2023-10-10T05:59:38.910Z,100438.93
2023-10-10T06:02:44.904Z,100443.28
2023-10-10T06:05:55.862Z,100440.61
2023-10-10T06:09:03.169Z,100437.77
2023-10-10T06:12:15.258Z,100444.22
2023-10-10T06:15:25.815Z,100445.63
2023-10-10T06:18:31.414Z,100444.22
2023-10-10T06:21:41.008Z,100445.08
2023-10-10T06:24:47.366Z,100453.38
2023-10-10T06:27:58.252Z,100452.13
2023-10-10T06:31:07.812Z,100452.79
2023-10-10T06:34:15.595Z,100455.91
2023-10-10T06:37:20.995Z,100447.06
2023-10-10T06:40:33.555Z,100445.95
2023-10-10T06:43:40.978Z,100444.08
2023-10-10T06:46:46.042Z,100445.92
2023-10-10T06:50:04.000Z,100451.74
2023-10-10T06:53:11.681Z,100451.89
2023-10-10T06:56:25.702Z,100448.48
2023-10-10T06:59:33.183Z,100451.30
2023-10-10T07:02:41.773Z,100454.02
2023-10-10T07:05:50.089Z,100450.83
2023-10-10T07:09:03.417Z,100454.27
2023-10-10T07:12:18.951Z,100450.20
2023-10-10T07:15:24.939Z,100447.44
2023-10-10T07:18:31.408Z,100444.55
2023-10-10T07:21:43.244Z,100439.44
2023-10-10T07:24:49.725Z,100446.06
2023-10-10T07:27:55.348Z,100440.34
2023-10-10T07:31:09.271Z,100441.86
2023-10-10T07:34:17.157Z,100434.16
2023-10-10T07:37:24.543Z,100435.62
2023-10-10T07:40:33.296Z,100426.75
2023-10-10T07:43:40.043Z,100428.98
2023-10-10T07:46:51.025Z,100435.16
2023-10-10T07:50:06.972Z,100438.85
2023-10-10T07:53:14.654Z,100438.10
2023-10-10T07:56:22.427Z,100447.86
2023-10-10T07:59:28.973Z,100445.50
2023-10-10T08:02:36.777Z,100443.94
2023-10-10T08:05:44.360Z,100446.06
2023-10-10T08:08:50.765Z,100444.37
2023-10-10T08:11:58.752Z,100445.45
2023-10-10T08:15:07.543Z,100445.77
2023-10-10T08:18:16.440Z,100449.70
2023-10-10T08:21:36.727Z,100451.30
2023-10-10T08:24:49.244Z,100444.19
2023-10-10T08:27:56.696Z,100442.50
2023-10-10T08:31:04.037Z,100446.94
2023-10-10T08:34:10.754Z,100447.98
2023-10-10T08:37:18.069Z,100447.88
2023-10-10T08:40:26.638Z,100448.83
2023-10-10T08:43:34.598Z,100448.88
2023-10-10T08:46:52.487Z,100448.74
2023-10-10T08:49:59.331Z,100459.33
2023-10-10T08:53:07.892Z,100445.09
2023-10-10T08:56:15.407Z,100444.87
2023-10-10T08:59:27.237Z,100438.59
2023-10-10T09:02:35.726Z,100427.39
2023-10-10T09:05:42.122Z,100428.77
2023-10-10T09:12:09.737Z,100424.77
2023-10-10T09:15:12.951Z,100425.08
2023-10-10T09:18:34.238Z,100427.63
2023-10-10T09:21:39.753Z,100417.06
2023-10-10T09:24:49.192Z,100414.88
2023-10-10T09:27:56.780Z,100410.73
2023-10-10T09:31:18.080Z,100402.48
2023-10-10T09:34:26.467Z,100403.87
2023-10-10T09:37:35.282Z,100402.45
2023-10-10T09:40:41.304Z,100395.33
2023-10-10T09:43:49.004Z,100399.80
2023-10-10T09:46:50.639Z,100400.94
2023-10-10T09:50:06.651Z,100392.98
2023-10-10T09:53:15.543Z,100388.23
2023-10-10T09:56:21.760Z,100383.03
2023-10-10T09:59:32.674Z,100385.25
2023-10-10T10:02:52.353Z,100379.53
2023-10-10T10:06:00.732Z,100383.25
2023-10-10T10:09:46.504Z,100381.31
2023-10-10T10:12:59.188Z,100377.06
2023-10-10T10:16:46.594Z,100375.89
2023-10-10T10:19:57.498Z,100377.48
2023-10-10T10:23:08.459Z,100357.31
2023-10-10T10:26:23.468Z,100364.12
2023-10-10T10:29:48.330Z,100367.73
2023-10-10T10:33:01.540Z,100367.94
2023-10-10T10:36:18.162Z,100364.66
2023-10-10T10:39:37.201Z,100364.86
2023-10-10T10:42:45.260Z,100370.17
2023-10-10T10:45:53.780Z,100361.34
2023-10-10T10:49:03.665Z,100359.45
2023-10-10T10:52:23.148Z,100351.05
2023-10-10T10:55:31.865Z,100353.16
2023-10-10T10:58:39.009Z,100351.56
2023-10-10T11:01:44.210Z,100352.23
2023-10-10T11:04:51.620Z,100346.61
2023-10-10T11:08:04.268Z,100343.11
2023-10-10T11:11:11.418Z,100346.70
2023-10-10T11:14:21.136Z,100342.86
2023-10-10T11:17:30.873Z,100331.42
2023-10-10T11:20:37.233Z,100333.24
2023-10-10T11:23:45.903Z,100332.05
2023-10-10T11:26:52.784Z,100342.36
2023-10-10T11:30:04.812Z,100342.16
2023-10-10T11:33:12.307Z,100342.75
2023-10-10T11:36:47.804Z,100349.97
2023-10-10T11:39:57.750Z,100345.84
2023-10-10T11:43:04.562Z,100344.66
2023-10-10T11:46:10.522Z,100342.32
2023-10-10T11:49:17.722Z,100344.40
2023-10-10T11:52:35.309Z,100339.37
2023-10-10T11:55:43.124Z,100342.70
2023-10-10T11:58:51.491Z,100341.28
2023-10-10T12:02:00.407Z,100345.97
2023-10-10T12:05:07.104Z,100350.46
2023-10-10T12:08:16.560Z,100340.59
2023-10-10T12:11:24.537Z,100346.66
2023-10-10T12:14:32.327Z,100339.13
2023-10-10T12:17:39.852Z,100338.98
2023-10-10T12:20:48.247Z,100342.77
2023-10-10T12:24:01.444Z,100333.30
2023-10-10T12:27:04.459Z,100336.71
2023-10-10T12:30:13.076Z,100337.86
2023-10-10T12:33:24.148Z,100336.06
2023-10-10T12:36:32.779Z,100329.58
2023-10-10T12:39:39.149Z,100326.90
2023-10-10T12:42:47.051Z,100327.63
2023-10-10T12:45:55.993Z,100323.38
2023-10-10T12:49:01.579Z,100326.28
2023-10-10T12:52:09.079Z,100324.38
2023-10-10T12:55:17.045Z,100325.95
2023-10-10T12:58:26.943Z,100330.92
2023-10-10T13:01:32.795Z,100326.77
2023-10-10T13:04:44.142Z,100328.11
2023-10-10T13:07:51.312Z,100324.87
2023-10-10T13:11:03.678Z,100325.64
2023-10-10T13:14:19.833Z,100330.02
2023-10-10T13:17:38.683Z,100336.34
2023-10-10T13:20:46.503Z,100327.08
2023-10-10T13:23:53.294Z,100328.83
2023-10-10T13:27:01.391Z,100325.63
2023-10-10T13:30:08.257Z,100328.97
2023-10-10T13:33:15.571Z,100331.20
2023-10-10T13:36:25.712Z,100333.42
2023-10-10T13:39:34.062Z,100329.39
2023-10-10T13:42:40.128Z,100335.30
2023-10-10T13:45:49.592Z,100336.80
2023-10-10T13:48:56.206Z,100334.58
2023-10-10T13:51:56.101Z,100337.56
2023-10-10T13:55:03.942Z,100332.88
2023-10-10T13:58:10.406Z,100337.64
2023-10-10T14:01:24.720Z,100338.09
2023-10-10T14:04:35.801Z,100339.47
2023-10-10T14:07:42.130Z,100345.61
2023-10-10T14:10:58.185Z,100346.68
2023-10-10T14:14:08.473Z,100352.73
2023-10-10T14:17:14.461Z,100355.50
2023-10-10T14:20:28.946Z,100359.77
2023-10-10T14:23:38.396Z,100365.16
2023-10-10T14:26:43.724Z,100371.77
2023-10-10T14:29:51.900Z,100374.42
2023-10-10T14:33:00.667Z,100374.30
2023-10-10T14:36:01.282Z,100376.34
2023-10-10T14:38:51.820Z,100383.67
2023-10-10T14:41:44.005Z,100385.27
2023-10-10T14:44:36.367Z,100383.77
2023-10-10T14:47:44.283Z,100381.84
2023-10-10T14:50:57.211Z,100394.27
2023-10-10T14:54:03.959Z,100398.12
2023-10-10T14:57:09.974Z,100402.14
2023-10-10T15:00:18.155Z,100407.33
2023-10-10T15:03:24.938Z,100412.53
2023-10-10T15:06:30.888Z,100421.13
2023-10-10T15:09:36.688Z,100409.77
2023-10-10T15:12:42.388Z,100419.87
2023-10-10T15:15:49.779Z,100425.70
2023-10-10T15:18:57.694Z,100430.98
2023-10-10T15:22:03.607Z,100441.03
2023-10-10T15:25:11.204Z,100443.53
2023-10-10T15:28:19.308Z,100452.95
2023-10-10T15:31:25.058Z,100459.69
2023-10-10T15:34:31.380Z,100456.11
2023-10-10T15:37:38.774Z,100468.94
2023-10-10T15:40:51.195Z,100476.80
2023-10-10T15:43:57.029Z,100488.14
2023-10-10T15:47:05.553Z,100484.66
2023-10-10T15:50:13.497Z,100485.44
2023-10-10T15:53:20.325Z,100494.28
2023-10-10T15:56:29.135Z,100498.05
2023-10-10T15:59:35.498Z,100503.00
2023-10-10T16:02:42.992Z,100500.90
2023-10-10T16:05:56.171Z,100510.33
2023-10-10T16:09:06.769Z,100510.18
2023-10-10T16:12:14.400Z,100513.66
2023-10-10T16:15:31.048Z,100520.55
2023-10-10T16:18:30.610Z,100524.55
2023-10-10T16:21:36.463Z,100531.13
2023-10-10T16:24:44.221Z,100535.82
2023-10-10T16:27:57.627Z,100535.31
2023-10-10T16:31:03.791Z,100540.31
2023-10-10T16:34:13.712Z,100545.00
2023-10-10T16:37:29.708Z,100540.47
2023-10-10T16:40:40.418Z,100547.56
2023-10-10T16:43:58.645Z,100554.27
2023-10-10T16:46:55.092Z,100560.32
2023-10-10T16:50:01.881Z,100560.03
2023-10-10T16:53:11.417Z,100561.79
2023-10-10T16:56:26.007Z,100567.67
2023-10-10T16:59:13.741Z,100573.72
2023-10-10T17:02:07.260Z,100574.59
2023-10-10T17:05:00.139Z,100577.09
2023-10-10T17:08:05.599Z,100577.02
2023-10-10T17:11:19.608Z,100580.50
2023-10-10T17:14:26.875Z,100579.20
2023-10-10T17:17:33.283Z,100583.34
2023-10-10T17:20:39.795Z,100587.13
2023-10-10T17:23:47.070Z,100593.88
2023-10-10T17:26:53.913Z,100598.17
2023-10-10T17:30:05.540Z,100596.03
2023-10-10T17:33:12.178Z,100600.28
2023-10-10T17:36:17.888Z,100598.39
2023-10-10T17:39:23.763Z,100602.19
2023-10-10T17:42:22.557Z,100605.44
2023-10-10T17:45:20.016Z,100607.47
2023-10-10T17:48:28.881Z,100614.92
2023-10-10T17:51:39.987Z,100613.05
2023-10-10T17:54:47.202Z,100608.49
2023-10-10T17:57:52.218Z,100621.45
2023-10-10T18:01:00.412Z,100615.43
2023-10-10T18:04:06.572Z,100614.19
2023-10-10T18:07:13.353Z,100615.92
2023-10-10T18:10:21.231Z,100618.17
2023-10-10T18:13:26.659Z,100629.13
2023-10-10T18:16:34.249Z,100635.09
2023-10-10T18:19:39.540Z,100630.80
2023-10-10T18:22:47.473Z,100635.83
2023-10-10T18:25:53.615Z,100647.17
2023-10-10T18:29:02.831Z,100654.81
2023-10-10T18:32:10.944Z,100658.66
2023-10-10T18:35:19.974Z,100668.24
2023-10-10T18:38:27.890Z,100683.56
2023-10-10T18:41:31.217Z,100680.45
2023-10-10T18:44:18.017Z,100684.72
2023-10-10T18:47:10.404Z,100690.04
2023-10-10T18:49:56.552Z,100690.72
2023-10-10T18:52:49.831Z,100695.82
2023-10-10T18:55:43.461Z,100698.53
2023-10-10T18:58:50.958Z,100698.95
2023-10-10T19:01:56.640Z,100700.92
2023-10-10T19:05:04.236Z,100699.62
2023-10-10T19:08:12.772Z,100707.36
2023-10-10T19:11:19.258Z,100718.27
2023-10-10T19:14:24.851Z,100720.75
2023-10-10T19:17:30.539Z,100729.50
2023-10-10T19:20:39.831Z,100726.27
2023-10-10T19:23:46.402Z,100726.31
2023-10-10T19:26:54.628Z,100737.95
2023-10-10T19:30:00.890Z,100737.80
2023-10-10T19:33:09.177Z,100738.67
2023-10-10T19:36:15.866Z,100741.28
2023-10-10T19:39:23.591Z,100748.15
2023-10-10T19:42:29.585Z,100752.97
2023-10-10T19:45:37.464Z,100742.32
2023-10-10T19:48:44.489Z,100746.64
2023-10-10T19:51:52.732Z,100748.32
2023-10-10T19:55:12.648Z,100750.06
2023-10-10T19:58:07.008Z,100750.58
2023-10-10T20:01:13.371Z,100764.45
2023-10-10T20:04:22.529Z,100764.12
2023-10-10T20:07:29.076Z,100765.64
2023-10-10T20:10:36.243Z,100773.70
2023-10-10T20:13:40.953Z,100778.98
2023-10-10T20:16:46.944Z,100782.75
2023-10-10T20:19:54.105Z,100783.78
2023-10-10T20:23:07.131Z,100783.25
2023-10-10T20:26:14.822Z,100786.87
2023-10-10T20:29:23.582Z,100785.84
2023-10-10T20:32:29.992Z,100786.84
2023-10-10T20:35:40.865Z,100788.55
2023-10-10T20:38:47.996Z,100787.20
2023-10-10T20:41:56.810Z,100791.98
2023-10-10T20:45:04.307Z,100791.12
2023-10-10T20:48:11.359Z,100793.14
2023-10-10T20:51:17.772Z,100792.98
2023-10-10T20:54:24.490Z,100797.60
2023-10-10T20:57:32.576Z,100803.22
2023-10-10T21:00:43.035Z,100801.16
2023-10-10T21:03:48.587Z,100809.53
2023-10-10T21:06:55.468Z,100803.50
2023-10-10T21:10:01.866Z,100805.15
2023-10-10T21:13:10.243Z,100809.83
2023-10-10T21:16:17.674Z,100812.93
2023-10-10T21:19:24.032Z,100816.95
2023-10-10T21:22:30.823Z,100814.73
2023-10-10T21:25:37.939Z,100815.95
2023-10-10T21:28:45.117Z,100826.92
2023-10-10T21:31:50.734Z,100829.85
2023-10-10T21:34:58.277Z,100832.53
2023-10-10T21:38:06.395Z,100840.08
2023-10-10T21:41:19.193Z,100840.19
2023-10-10T21:44:27.655Z,100845.20
2023-10-10T21:47:32.825Z,100841.06
2023-10-10T21:50:38.518Z,100851.25
2023-10-10T21:53:44.902Z,100852.34
2023-10-10T21:56:51.173Z,100856.78
2023-10-10T21:59:58.672Z,100862.42
2023-10-10T22:03:13.356Z,100861.19
2023-10-10T22:06:20.236Z,100865.01
2023-10-10T22:09:25.794Z,100869.73
2023-10-10T22:12:31.912Z,100877.13
2023-10-10T22:15:40.491Z,100883.75
2023-10-10T22:18:46.703Z,100885.94
2023-10-10T22:21:54.623Z,100895.45
2023-10-10T22:24:59.842Z,100892.84
2023-10-10T22:28:08.368Z,100904.76
2023-10-10T22:31:14.430Z,100915.22
2023-10-10T22:34:20.455Z,100920.59
2023-10-10T22:37:26.725Z,100921.45
2023-10-10T22:40:35.883Z,100922.97
2023-10-10T22:43:44.357Z,100921.72
2023-10-10T22:46:51.634Z,100934.78
2023-10-10T22:49:57.615Z,100932.64
2023-10-10T22:53:09.684Z,100936.09
2023-10-10T22:56:15.099Z,100941.28
2023-10-10T22:59:21.168Z,100941.95
2023-10-10T23:02:27.473Z,100947.41
2023-10-10T23:05:33.690Z,100945.19
2023-10-10T23:08:38.778Z,100950.53
2023-10-10T23:11:45.426Z,100948.41
2023-10-10T23:14:53.073Z,100948.06
2023-10-10T23:18:01.596Z,100947.28
2023-10-10T23:21:07.359Z,100946.27
2023-10-10T23:24:17.654Z,100944.20
2023-10-10T23:27:25.866Z,100947.77
2023-10-10T23:30:34.592Z,100937.62
2023-10-10T23:33:41.669Z,100943.38
2023-10-10T23:36:41.972Z,100943.23
2023-10-10T23:39:50.283Z,100946.72
2023-10-10T23:42:59.024Z,100946.46
2023-10-10T23:46:06.977Z,100950.85
2023-10-10T23:49:15.286Z,100949.06
2023-10-10T23:52:24.227Z,100949.62
2023-10-10T23:55:30.247Z,100949.47
2023-10-10T23:58:37.174Z,100958.86
